createdAt,value
2023-05-09T00:00:33.103Z,22.73
2023-05-09T00:02:59.908Z,23.55
2023-05-09T00:05:26.881Z,23.33
2023-05-09T00:07:53.588Z,22.50
2023-05-09T00:10:20.465Z,23.10
2023-05-09T00:12:47.275Z,23.25
2023-05-09T00:15:14.271Z,22.80
2023-05-09T00:17:41.496Z,21.00
2023-05-09T00:20:12.308Z,22.17
2023-05-09T00:22:41.148Z,23.40
2023-05-09T00:25:09.604Z,22.67
2023-05-09T00:27:36.453Z,22.98
2023-05-09T00:30:05.531Z,23.08
2023-05-09T00:32:33.401Z,21.85
2023-05-09T00:35:00.249Z,21.42
2023-05-09T00:37:27.166Z,21.52
2023-05-09T00:39:53.833Z,23.30
2023-05-09T00:42:20.637Z,24.20
2023-05-09T00:44:47.313Z,23.98
2023-05-09T00:47:14.044Z,25.45
2023-05-09T00:49:40.830Z,25.52
2023-05-09T00:52:07.532Z,22.88
2023-05-09T00:54:34.545Z,23.70
2023-05-09T00:57:01.433Z,24.25
2023-05-09T00:59:28.520Z,24.38
2023-05-09T01:01:56.117Z,24.75
2023-05-09T01:04:23.120Z,23.67
2023-05-09T01:06:52.544Z,23.35
2023-05-09T01:09:45.642Z,24.20
2023-05-09T01:12:24.388Z,23.77
2023-05-09T01:15:11.970Z,23.67
2023-05-09T01:18:01.123Z,24.33
2023-05-09T01:20:38.244Z,23.77
2023-05-09T01:23:36.761Z,25.77
2023-05-09T01:26:28.137Z,24.38
2023-05-09T01:29:19.506Z,26.42
2023-05-09T01:31:49.127Z,26.08
2023-05-09T01:34:18.037Z,25.20
2023-05-09T01:36:46.934Z,24.95
2023-05-09T01:39:14.805Z,24.60
2023-05-09T01:41:41.564Z,25.48
2023-05-09T01:44:11.732Z,24.17
2023-05-09T01:46:39.773Z,25.85
2023-05-09T01:49:08.468Z,24.52
2023-05-09T01:51:37.886Z,23.25
2023-05-09T01:54:06.895Z,22.77
2023-05-09T01:56:36.417Z,23.67
2023-05-09T01:59:06.585Z,24.03
2023-05-09T02:01:34.509Z,23.35
2023-05-09T02:04:05.081Z,23.75
2023-05-09T02:06:32.626Z,23.60
2023-05-09T02:08:59.927Z,21.83
2023-05-09T02:11:26.726Z,23.23
2023-05-09T02:13:53.558Z,23.52
2023-05-09T02:16:21.074Z,21.55
2023-05-09T02:18:47.910Z,21.90
2023-05-09T02:21:14.716Z,22.05
2023-05-09T02:23:41.594Z,22.13
2023-05-09T02:26:08.659Z,21.75
2023-05-09T02:28:36.968Z,21.75
2023-05-09T02:31:07.046Z,22.92
2023-05-09T02:33:36.117Z,23.75
2023-05-09T02:36:03.241Z,22.52
2023-05-09T02:38:30.047Z,22.27
2023-05-09T02:40:56.931Z,22.42
2023-05-09T02:43:23.716Z,22.67
2023-05-09T02:45:50.624Z,22.85
2023-05-09T02:48:17.430Z,21.88
2023-05-09T02:50:45.907Z,23.25
2023-05-09T02:53:12.607Z,21.95
2023-05-09T02:55:39.318Z,22.98
2023-05-09T02:58:13.255Z,22.08
2023-05-09T03:00:40.764Z,20.17
2023-05-09T03:03:07.572Z,21.45
2023-05-09T03:05:34.718Z,21.27
2023-05-09T03:08:01.561Z,21.20
2023-05-09T03:10:28.280Z,21.02
2023-05-09T03:12:55.089Z,21.23
2023-05-09T03:15:21.831Z,21.40
2023-05-09T03:17:48.531Z,22.08
2023-05-09T03:20:15.870Z,19.90
2023-05-09T03:22:42.735Z,21.77
2023-05-09T03:25:10.215Z,21.45
2023-05-09T03:27:36.925Z,22.52
2023-05-09T03:30:03.953Z,19.95
2023-05-09T03:32:30.841Z,20.67
2023-05-09T03:34:57.650Z,21.27
2023-05-09T03:37:26.232Z,21.63
2023-05-09T03:39:53.851Z,21.25
2023-05-09T03:42:21.420Z,20.27
2023-05-09T03:44:48.126Z,19.45
2023-05-09T03:47:14.835Z,19.27
2023-05-09T03:49:41.566Z,18.95
2023-05-09T03:52:08.255Z,19.08
2023-05-09T03:54:35.175Z,19.75
2023-05-09T03:57:01.868Z,18.85
2023-05-09T03:59:28.545Z,19.63
2023-05-09T04:01:55.384Z,19.10
2023-05-09T04:04:22.381Z,19.73
2023-05-09T04:06:49.113Z,18.67
2023-05-09T04:09:15.947Z,19.50
2023-05-09T04:11:42.737Z,20.00
2023-05-09T04:14:09.448Z,18.55
2023-05-09T04:16:36.227Z,17.75
2023-05-09T04:19:03.014Z,18.92
2023-05-09T04:21:29.735Z,18.42
2023-05-09T04:23:56.647Z,17.45
2023-05-09T04:26:24.692Z,18.20
2023-05-09T04:28:52.849Z,18.25
2023-05-09T04:31:19.674Z,17.10
2023-05-09T04:33:46.538Z,18.02
2023-05-09T04:36:13.288Z,18.77
2023-05-09T04:38:40.047Z,17.98
2023-05-09T04:41:07.150Z,16.45
2023-05-09T04:43:34.084Z,16.55
2023-05-09T04:46:01.352Z,16.05
2023-05-09T04:48:28.147Z,16.17
2023-05-09T04:50:55.015Z,16.33
2023-05-09T04:53:21.748Z,16.52
2023-05-09T04:55:48.421Z,16.25
2023-05-09T04:58:15.304Z,15.20
2023-05-09T05:00:42.039Z,15.23
2023-05-09T05:03:08.901Z,15.93
2023-05-09T05:05:37.339Z,14.93
2023-05-09T05:08:04.851Z,15.38
2023-05-09T05:10:31.687Z,14.68
2023-05-09T05:12:58.401Z,15.00
2023-05-09T05:15:26.860Z,15.70
2023-05-09T05:17:53.751Z,15.82
2023-05-09T05:20:21.201Z,14.75
2023-05-09T05:22:48.009Z,15.07
2023-05-09T05:25:15.271Z,14.85
2023-05-09T05:27:44.210Z,15.00
2023-05-09T05:30:11.624Z,14.82
2023-05-09T05:32:38.351Z,15.05
2023-05-09T05:35:05.563Z,14.85
2023-05-09T05:37:32.271Z,14.45
2023-05-09T05:39:59.105Z,14.13
2023-05-09T05:42:25.824Z,14.05
2023-05-09T05:44:52.592Z,13.38
2023-05-09T05:47:19.268Z,12.98
2023-05-09T05:49:46.290Z,14.93
2023-05-09T05:52:12.992Z,14.05
2023-05-09T05:54:39.676Z,13.85
2023-05-09T05:57:06.414Z,13.07
2023-05-09T05:59:33.091Z,13.00
2023-05-09T06:02:00.371Z,13.45
2023-05-09T06:04:28.961Z,14.35
2023-05-09T06:06:55.850Z,13.77
2023-05-09T06:09:22.654Z,13.50
2023-05-09T06:11:49.372Z,12.40
2023-05-09T06:14:16.112Z,13.30
2023-05-09T06:16:42.936Z,13.27
2023-05-09T06:19:09.663Z,12.57
2023-05-09T06:21:36.413Z,13.65
2023-05-09T06:24:11.959Z,13.50
2023-05-09T06:26:43.984Z,12.85
2023-05-09T06:29:10.816Z,13.27
2023-05-09T06:31:39.106Z,12.55
2023-05-09T06:34:06.432Z,13.68
2023-05-09T06:36:33.722Z,13.68
2023-05-09T06:39:00.810Z,13.82
2023-05-09T06:41:27.549Z,13.82
2023-05-09T06:43:54.272Z,12.88
2023-05-09T06:46:21.071Z,13.57
2023-05-09T06:48:47.777Z,13.82
2023-05-09T06:51:14.580Z,14.57
2023-05-09T06:53:41.337Z,15.15
2023-05-09T06:56:08.159Z,15.70
2023-05-09T06:58:34.972Z,15.15
2023-05-09T07:01:01.861Z,15.45
2023-05-09T07:03:28.597Z,14.57
2023-05-09T07:05:57.369Z,15.02
2023-05-09T07:08:24.273Z,15.10
2023-05-09T07:10:51.251Z,15.35
2023-05-09T07:13:18.017Z,16.52
2023-05-09T07:15:44.910Z,16.50
2023-05-09T07:18:11.827Z,16.50
2023-05-09T07:20:38.583Z,15.98
2023-05-09T07:23:06.046Z,16.27
2023-05-09T07:25:33.930Z,20.23
2023-05-09T07:28:01.067Z,15.60
2023-05-09T07:30:27.928Z,15.93
2023-05-09T07:32:54.750Z,16.48
2023-05-09T07:35:21.808Z,15.38
2023-05-09T07:37:48.615Z,16.27
2023-05-09T07:40:15.795Z,15.30
2023-05-09T07:42:49.400Z,17.10
2023-05-09T07:45:17.090Z,14.85
2023-05-09T07:47:44.493Z,14.70
2023-05-09T07:50:11.382Z,14.48
2023-05-09T07:52:38.168Z,15.70
2023-05-09T07:55:05.282Z,14.25
2023-05-09T07:57:32.086Z,14.13
2023-05-09T07:59:58.880Z,13.80
2023-05-09T08:02:25.912Z,13.38
2023-05-09T08:04:52.764Z,13.90
2023-05-09T08:07:19.471Z,12.77
2023-05-09T08:09:46.213Z,13.77
2023-05-09T08:12:13.010Z,13.68
2023-05-09T08:14:39.739Z,13.07
2023-05-09T08:17:06.483Z,12.25
2023-05-09T08:19:33.219Z,12.80
2023-05-09T08:22:00.751Z,11.98
2023-05-09T08:24:27.468Z,12.32
2023-05-09T08:26:54.192Z,12.30
2023-05-09T08:29:20.883Z,11.65
2023-05-09T08:31:47.614Z,11.63
2023-05-09T08:34:14.485Z,11.65
2023-05-09T08:36:41.410Z,11.10
2023-05-09T08:39:09.585Z,11.15
2023-05-09T08:41:37.010Z,11.45
2023-05-09T08:44:04.534Z,10.88
2023-05-09T08:46:37.099Z,10.73
2023-05-09T08:49:08.918Z,10.75
2023-05-09T08:51:36.682Z,9.90
2023-05-09T08:54:03.974Z,10.18
2023-05-09T08:56:31.532Z,10.43
2023-05-09T08:58:59.041Z,10.77
2023-05-09T09:01:26.888Z,10.13
2023-05-09T09:03:54.007Z,10.40
2023-05-09T09:06:22.557Z,10.50
2023-05-09T09:08:50.525Z,10.40
2023-05-09T09:11:17.632Z,9.45
2023-05-09T09:13:46.575Z,10.07
2023-05-09T09:16:21.328Z,9.60
2023-05-09T09:18:49.475Z,8.82
2023-05-09T09:21:17.674Z,9.45
2023-05-09T09:23:47.503Z,9.25
2023-05-09T09:26:14.985Z,9.88
2023-05-09T09:28:42.927Z,9.45
2023-05-09T09:31:27.663Z,9.55
2023-05-09T09:34:03.690Z,8.95
2023-05-09T09:36:32.548Z,9.32
2023-05-09T09:39:01.162Z,8.88
2023-05-09T09:41:35.558Z,8.93
2023-05-09T09:44:12.650Z,9.00
2023-05-09T09:46:46.688Z,8.85
2023-05-09T09:49:14.541Z,7.95
2023-05-09T09:51:42.199Z,8.27
2023-05-09T09:54:10.477Z,7.57
2023-05-09T09:56:47.412Z,8.25
2023-05-09T09:59:16.104Z,8.35
2023-05-09T10:02:07.060Z,8.45
2023-05-09T10:04:39.172Z,7.95
2023-05-09T10:07:07.536Z,8.15
2023-05-09T10:09:37.988Z,8.68
2023-05-09T10:12:06.779Z,7.97
2023-05-09T10:14:35.582Z,8.93
2023-05-09T10:17:04.396Z,8.40
2023-05-09T10:19:32.228Z,7.75
2023-05-09T10:22:10.052Z,8.50
2023-05-09T10:24:48.818Z,8.20
2023-05-09T10:27:21.681Z,8.57
2023-05-09T10:30:10.509Z,7.93
2023-05-09T10:32:54.947Z,7.55
2023-05-09T10:35:27.935Z,7.80
2023-05-09T10:37:59.327Z,8.57
2023-05-09T10:40:26.979Z,8.07
2023-05-09T10:42:53.713Z,8.25
2023-05-09T10:45:23.073Z,8.73
2023-05-09T10:47:53.050Z,8.67
2023-05-09T10:50:21.500Z,8.38
2023-05-09T10:53:03.937Z,8.40
2023-05-09T10:56:01.998Z,9.77
2023-05-09T10:58:33.735Z,8.57
2023-05-09T11:01:01.689Z,8.05
2023-05-09T11:03:49.883Z,8.13
2023-05-09T11:06:52.540Z,8.05
2023-05-09T11:09:41.595Z,8.27
2023-05-09T11:12:13.435Z,7.65
2023-05-09T11:14:48.885Z,7.82
2023-05-09T11:17:29.012Z,7.10
2023-05-09T11:20:05.744Z,7.10
2023-05-09T11:22:44.289Z,7.55
2023-05-09T11:25:13.322Z,7.30
2023-05-09T11:27:48.568Z,7.43
2023-05-09T11:30:20.592Z,7.05
2023-05-09T11:32:52.094Z,7.85
2023-05-09T11:35:21.275Z,7.70
2023-05-09T11:37:55.059Z,7.07
2023-05-09T11:40:22.706Z,7.45
2023-05-09T11:42:55.404Z,7.80
2023-05-09T11:45:27.014Z,7.30
2023-05-09T11:47:54.259Z,7.70
2023-05-09T11:50:21.698Z,7.70
2023-05-09T11:52:49.638Z,7.15
2023-05-09T11:55:19.357Z,7.45
2023-05-09T11:57:51.696Z,7.57
2023-05-09T12:00:20.695Z,7.10
2023-05-09T12:02:47.919Z,7.32
2023-05-09T12:05:16.947Z,7.38
2023-05-09T12:07:44.623Z,7.07
2023-05-09T12:10:16.324Z,6.63
2023-05-09T12:12:45.862Z,7.28
2023-05-09T12:15:13.964Z,7.07
2023-05-09T12:17:42.583Z,6.70
2023-05-09T12:20:10.233Z,6.95
2023-05-09T12:22:40.003Z,7.20
2023-05-09T12:25:10.370Z,6.85
2023-05-09T12:27:38.500Z,6.78
2023-05-09T12:30:09.895Z,6.72
2023-05-09T12:32:39.215Z,7.32
2023-05-09T12:35:10.488Z,6.97
2023-05-09T12:37:37.807Z,8.15
2023-05-09T12:40:13.055Z,7.13
2023-05-09T12:42:43.286Z,6.85
2023-05-09T12:45:11.223Z,7.25
2023-05-09T12:47:39.104Z,6.68
2023-05-09T12:50:07.555Z,6.80
2023-05-09T12:52:50.134Z,7.28
2023-05-09T12:55:25.544Z,7.25
2023-05-09T12:58:04.402Z,7.53
2023-05-09T13:00:46.074Z,6.63
2023-05-09T13:03:25.252Z,7.10
2023-05-09T13:06:04.407Z,7.97
2023-05-09T13:08:31.805Z,6.10
2023-05-09T13:11:12.018Z,6.70
2023-05-09T13:13:42.537Z,6.18
2023-05-09T13:16:11.487Z,6.57
2023-05-09T13:18:39.548Z,5.97
2023-05-09T13:21:06.281Z,6.68
2023-05-09T13:23:33.099Z,6.13
2023-05-09T13:25:59.839Z,6.03
2023-05-09T13:28:26.605Z,6.47
2023-05-09T13:30:53.427Z,6.38
2023-05-09T13:35:50.122Z,6.28
2023-05-09T13:38:16.927Z,6.47
2023-05-09T13:40:43.655Z,6.55
2023-05-09T13:43:10.460Z,6.30
2023-05-09T13:45:37.140Z,6.32
2023-05-09T13:48:04.312Z,5.30
2023-05-09T13:50:31.034Z,5.22
2023-05-09T13:52:58.635Z,4.63
2023-05-09T13:55:26.916Z,4.70
2023-05-09T13:57:53.667Z,5.55
2023-05-09T14:00:21.348Z,5.30
2023-05-09T14:02:48.529Z,4.60
2023-05-09T14:05:15.448Z,5.10
2023-05-09T14:07:42.838Z,4.55
2023-05-09T14:10:11.819Z,4.70
2023-05-09T14:12:47.128Z,4.70
2023-05-09T14:15:14.330Z,5.35
2023-05-09T14:17:41.288Z,5.25
2023-05-09T14:20:08.614Z,5.22
2023-05-09T14:22:36.408Z,5.25
2023-05-09T14:25:03.292Z,5.80
2023-05-09T14:27:30.285Z,5.65
2023-05-09T14:29:57.451Z,5.38
2023-05-09T14:32:24.325Z,5.40
2023-05-09T14:34:51.250Z,5.00
2023-05-09T14:37:17.964Z,4.75
2023-05-09T14:39:49.397Z,5.55
2023-05-09T14:42:16.696Z,5.20
2023-05-09T14:44:44.718Z,4.85
2023-05-09T14:47:12.135Z,4.68
2023-05-09T14:49:40.062Z,5.20
2023-05-09T14:52:06.855Z,5.25
2023-05-09T14:54:33.834Z,4.55
2023-05-09T14:57:02.026Z,4.95
2023-05-09T14:59:29.604Z,5.05
2023-05-09T15:01:56.370Z,5.10
2023-05-09T15:04:25.473Z,5.07
2023-05-09T15:06:52.270Z,5.20
2023-05-09T15:09:19.351Z,5.28
2023-05-09T15:11:48.914Z,5.28
2023-05-09T15:14:16.715Z,5.57
2023-05-09T15:16:44.004Z,5.57
2023-05-09T15:19:11.060Z,5.45
2023-05-09T15:21:37.846Z,5.60
2023-05-09T15:24:05.257Z,5.40
2023-05-09T15:26:32.414Z,4.85
2023-05-09T15:28:59.346Z,5.05
2023-05-09T15:31:26.333Z,4.63
2023-05-09T15:33:53.313Z,5.15
2023-05-09T15:36:20.037Z,4.13
2023-05-09T15:38:49.469Z,4.78
2023-05-09T15:41:16.780Z,4.88
2023-05-09T15:43:43.604Z,4.90
2023-05-09T15:46:10.533Z,4.50
2023-05-09T15:48:37.487Z,4.60
2023-05-09T15:51:04.529Z,3.95
2023-05-09T15:53:31.643Z,3.60
2023-05-09T15:55:58.418Z,3.67
2023-05-09T15:58:25.470Z,3.40
2023-05-09T16:00:52.339Z,3.10
2023-05-09T16:03:19.649Z,3.00
2023-05-09T16:05:46.907Z,3.13
2023-05-09T16:08:13.764Z,3.00
2023-05-09T16:10:40.875Z,2.90
2023-05-09T16:13:08.039Z,3.30
2023-05-09T16:15:35.362Z,3.70
2023-05-09T16:18:02.121Z,3.40
2023-05-09T16:20:29.077Z,3.45
2023-05-09T16:22:55.891Z,3.92
2023-05-09T16:25:22.740Z,3.97
2023-05-09T16:27:49.564Z,4.15
2023-05-09T16:30:17.172Z,4.15
2023-05-09T16:32:44.603Z,4.03
2023-05-09T16:35:11.395Z,4.00
2023-05-09T16:37:38.279Z,4.43
2023-05-09T16:40:05.599Z,4.20
2023-05-09T16:42:32.363Z,4.25
2023-05-09T16:45:00.204Z,4.53
2023-05-09T16:47:27.070Z,4.63
2023-05-09T16:49:53.757Z,4.80
2023-05-09T16:52:20.771Z,5.10
2023-05-09T16:54:49.161Z,4.50
2023-05-09T16:57:16.181Z,4.78
2023-05-09T16:59:42.953Z,4.85
2023-05-09T17:02:09.657Z,4.80
2023-05-09T17:04:37.654Z,5.03
2023-05-09T17:07:04.802Z,5.40
2023-05-09T17:09:32.321Z,4.78
2023-05-09T17:11:59.225Z,6.00
2023-05-09T17:14:26.872Z,6.00
2023-05-09T17:16:54.058Z,6.28
2023-05-09T17:19:23.373Z,6.32
2023-05-09T17:21:50.747Z,6.80
2023-05-09T17:24:17.909Z,6.57
2023-05-09T17:26:44.615Z,6.68
2023-05-09T17:29:11.449Z,6.90
2023-05-09T17:31:38.230Z,6.57
2023-05-09T17:34:05.671Z,6.90
2023-05-09T17:36:33.616Z,7.35
2023-05-09T17:39:00.885Z,6.88
2023-05-09T17:41:27.732Z,6.85
2023-05-09T17:43:57.241Z,7.25
2023-05-09T17:46:24.484Z,6.85
2023-05-09T17:48:51.390Z,6.97
2023-05-09T17:51:18.277Z,6.68
2023-05-09T17:53:45.002Z,7.40
2023-05-09T17:56:11.812Z,6.88
2023-05-09T17:58:38.634Z,7.53
2023-05-09T18:01:05.667Z,7.30
2023-05-09T18:03:32.851Z,7.50
2023-05-09T18:06:02.765Z,7.25
2023-05-09T18:08:29.884Z,8.13
2023-05-09T18:10:57.340Z,7.68
2023-05-09T18:13:24.446Z,7.47
2023-05-09T18:15:51.480Z,6.18
2023-05-09T18:18:18.475Z,6.32
2023-05-09T18:20:47.092Z,5.95
2023-05-09T18:23:14.755Z,5.30
2023-05-09T18:25:41.989Z,5.68
2023-05-09T18:28:09.326Z,5.20
2023-05-09T18:30:36.249Z,5.55
2023-05-09T18:33:03.228Z,5.47
2023-05-09T18:35:30.088Z,5.35
2023-05-09T18:37:56.909Z,5.43
2023-05-09T18:40:23.862Z,5.10
2023-05-09T18:42:50.798Z,5.20
2023-05-09T18:45:18.200Z,5.50
2023-05-09T18:47:44.971Z,6.05
2023-05-09T18:50:13.594Z,6.30
2023-05-09T18:52:41.493Z,5.95
2023-05-09T18:55:08.662Z,6.25
2023-05-09T18:57:35.518Z,6.38
2023-05-09T19:00:02.262Z,6.22
2023-05-09T19:02:30.158Z,6.53
2023-05-09T19:04:57.159Z,6.60
2023-05-09T19:07:24.973Z,6.60
2023-05-09T19:09:51.812Z,6.78
2023-05-09T19:12:19.214Z,6.78
2023-05-09T19:14:45.984Z,6.90
2023-05-09T19:17:12.851Z,6.40
2023-05-09T19:19:40.400Z,6.88
2023-05-09T19:22:07.161Z,6.30
2023-05-09T19:24:33.942Z,6.32
2023-05-09T19:27:00.844Z,5.95
2023-05-09T19:29:27.571Z,6.43
2023-05-09T19:31:54.532Z,6.28
2023-05-09T19:34:21.644Z,5.90
2023-05-09T19:36:48.559Z,5.90
2023-05-09T19:39:15.337Z,6.22
2023-05-09T19:41:42.128Z,6.10
2023-05-09T19:44:08.950Z,6.05
2023-05-09T19:46:38.147Z,5.82
2023-05-09T19:49:06.175Z,5.60
2023-05-09T19:51:33.148Z,6.32
2023-05-09T19:53:59.953Z,6.00
2023-05-09T19:56:27.327Z,5.18
2023-05-09T19:58:54.816Z,4.90
2023-05-09T20:01:21.912Z,4.68
2023-05-09T20:03:51.991Z,4.45
2023-05-09T20:06:19.519Z,4.65
2023-05-09T20:08:46.993Z,4.95
2023-05-09T20:11:14.778Z,4.35
2023-05-09T20:13:42.107Z,4.80
2023-05-09T20:16:09.150Z,4.75
2023-05-09T20:18:35.996Z,4.95
2023-05-09T20:21:03.768Z,5.22
2023-05-09T20:23:31.187Z,5.55
2023-05-09T20:25:58.152Z,5.32
2023-05-09T20:28:25.248Z,5.28
2023-05-09T20:30:52.068Z,5.30
2023-05-09T20:33:19.058Z,5.65
2023-05-09T20:35:45.868Z,6.25
2023-05-09T20:38:12.609Z,6.32
2023-05-09T20:40:40.376Z,6.53
2023-05-09T20:43:07.508Z,6.35
2023-05-09T20:45:36.483Z,7.03
2023-05-09T20:48:05.610Z,6.60
2023-05-09T20:50:32.512Z,7.20
2023-05-09T20:52:59.219Z,7.95
2023-05-09T20:55:25.965Z,8.50
2023-05-09T20:57:52.679Z,8.00
2023-05-09T21:00:19.589Z,8.02
2023-05-09T21:02:46.484Z,8.48
2023-05-09T21:05:13.338Z,8.90
2023-05-09T21:07:41.552Z,8.57
2023-05-09T21:10:10.193Z,9.05
2023-05-09T21:12:37.099Z,9.07
2023-05-09T21:15:04.230Z,9.73
2023-05-09T21:17:31.325Z,10.07
2023-05-09T21:19:58.086Z,10.23
2023-05-09T21:22:25.064Z,9.93
2023-05-09T21:24:51.826Z,10.88
2023-05-09T21:27:18.736Z,11.02
2023-05-09T21:29:49.154Z,12.27
2023-05-09T21:32:16.943Z,12.02
2023-05-09T21:34:43.700Z,11.88
2023-05-09T21:37:10.522Z,12.75
2023-05-09T21:39:37.275Z,13.57
2023-05-09T21:42:04.300Z,12.77
2023-05-09T21:44:31.221Z,12.95
2023-05-09T21:46:58.091Z,12.90
2023-05-09T21:49:26.789Z,13.02
2023-05-09T21:51:53.489Z,14.52
2023-05-09T21:54:20.976Z,15.48
2023-05-09T21:56:47.668Z,14.90
2023-05-09T21:59:14.436Z,15.65
2023-05-09T22:01:42.135Z,14.40
2023-05-09T22:04:10.533Z,15.23
2023-05-09T22:06:37.383Z,15.20
2023-05-09T22:09:05.459Z,16.08
2023-05-09T22:11:32.208Z,15.02
2023-05-09T22:13:58.902Z,15.57
2023-05-09T22:16:25.841Z,15.05
2023-05-09T22:18:53.681Z,15.30
2023-05-09T22:21:20.456Z,16.88
2023-05-09T22:23:47.215Z,18.17
2023-05-09T22:26:13.958Z,19.20
2023-05-09T22:28:40.709Z,18.05
2023-05-09T22:31:07.729Z,19.08
2023-05-09T22:33:34.540Z,19.05
2023-05-09T22:36:01.504Z,19.10
2023-05-09T22:38:28.234Z,18.65
2023-05-09T22:40:55.001Z,18.08
2023-05-09T22:43:22.280Z,17.40
2023-05-09T22:45:49.141Z,17.70
2023-05-09T22:48:16.375Z,18.77
2023-05-09T22:50:43.052Z,19.33
2023-05-09T22:53:09.821Z,20.98
2023-05-09T22:55:36.591Z,19.50
2023-05-09T22:58:03.739Z,19.55
2023-05-09T23:00:30.773Z,18.90
2023-05-09T23:02:59.349Z,18.60
2023-05-09T23:05:26.290Z,19.52
2023-05-09T23:07:53.009Z,19.80
2023-05-09T23:10:19.792Z,17.67
2023-05-09T23:12:46.609Z,19.10
2023-05-09T23:15:13.427Z,19.15
2023-05-09T23:17:41.629Z,18.70
2023-05-09T23:20:09.012Z,20.67
2023-05-09T23:22:35.871Z,19.77
2023-05-09T23:25:03.316Z,20.73
2023-05-09T23:27:31.230Z,19.33
2023-05-09T23:29:58.014Z,20.75
2023-05-09T23:32:24.817Z,20.58
2023-05-09T23:34:52.070Z,20.20
2023-05-09T23:37:18.789Z,20.75
2023-05-09T23:39:45.466Z,20.08
2023-05-09T23:42:12.364Z,20.30
2023-05-09T23:44:39.267Z,20.35
2023-05-09T23:47:06.293Z,20.40
2023-05-09T23:49:33.014Z,21.27
2023-05-09T23:51:59.719Z,20.98
2023-05-09T23:54:27.204Z,21.77
2023-05-09T23:56:54.096Z,21.55
2023-05-09T23:59:20.869Z,23.23
